createdAt,value
2022-10-03T01:54:25.054Z,27.50
2022-10-03T01:59:27.301Z,29.70
2022-10-03T02:04:26.840Z,34.10
2022-10-03T02:09:24.948Z,27.60
2022-10-03T02:14:24.844Z,26.70
2022-10-03T02:19:24.766Z,30.20
2022-10-03T02:24:41.125Z,28.50
2022-10-03T02:29:25.671Z,30.30
2022-10-03T02:34:33.091Z,30.00
2022-10-03T02:39:24.440Z,29.60
2022-10-03T02:44:24.920Z,31.60
2022-10-03T02:49:24.362Z,35.30
2022-10-03T02:54:24.766Z,28.30
2022-10-03T02:59:24.258Z,29.60
2022-10-03T03:04:24.321Z,30.90
2022-10-03T03:09:24.067Z,31.70
2022-10-03T03:14:23.998Z,31.70
2022-10-03T03:19:23.982Z,28.90
2022-10-03T03:24:23.920Z,34.70
2022-10-03T03:29:24.029Z,29.70
2022-10-03T03:34:23.800Z,30.40
2022-10-03T03:39:24.856Z,34.70
2022-10-03T03:44:23.793Z,26.90
2022-10-03T03:49:23.725Z,29.30
2022-10-03T03:54:23.663Z,34.70
2022-10-03T03:59:23.548Z,34.40
2022-10-03T04:04:23.611Z,27.50
2022-10-03T04:09:23.594Z,30.70
2022-10-03T04:14:23.511Z,40.30
2022-10-03T04:19:23.445Z,36.40
2022-10-03T04:24:23.394Z,34.00
2022-10-03T04:29:23.228Z,34.30
2022-10-03T04:34:23.186Z,41.00
2022-10-03T04:39:23.099Z,31.40
2022-10-03T04:44:23.025Z,31.10
2022-10-03T04:49:22.975Z,43.10
2022-10-03T04:54:22.937Z,41.60
2022-10-03T04:59:22.853Z,39.70
2022-10-03T05:04:22.807Z,41.90
2022-10-03T05:09:22.746Z,43.30
2022-10-03T05:14:22.698Z,40.20
2022-10-03T05:19:22.737Z,43.40
2022-10-03T05:24:22.783Z,49.80
2022-10-03T05:29:22.720Z,52.30
2022-10-03T05:34:22.661Z,53.60
2022-10-03T05:39:22.595Z,53.50
2022-10-03T05:44:22.426Z,54.00
2022-10-03T05:49:22.360Z,60.00
2022-10-03T05:54:22.251Z,55.80
2022-10-03T05:59:22.205Z,51.70
2022-10-03T06:04:22.240Z,75.70
2022-10-03T06:09:22.103Z,62.90
2022-10-03T06:14:22.211Z,68.10
2022-10-03T06:19:22.115Z,80.70
2022-10-03T06:24:22.035Z,78.20
2022-10-03T06:29:22.014Z,67.30
2022-10-03T06:34:22.939Z,75.50
2022-10-03T06:39:21.870Z,62.90
2022-10-03T06:44:21.891Z,69.30
2022-10-03T06:49:21.790Z,65.60
2022-10-03T06:54:21.625Z,70.70
2022-10-03T06:59:21.572Z,55.30
2022-10-03T07:04:21.527Z,56.60
2022-10-03T07:09:21.442Z,68.70
2022-10-03T07:14:22.029Z,53.20
2022-10-03T07:19:21.411Z,58.60
2022-10-03T07:24:21.339Z,54.40
2022-10-03T07:29:21.294Z,55.10
2022-10-03T07:34:21.202Z,51.10
2022-10-03T07:39:21.160Z,55.50
2022-10-03T07:44:21.067Z,51.00
2022-10-03T07:49:21.057Z,51.70
2022-10-03T07:54:20.996Z,55.30
2022-10-03T07:59:21.031Z,47.90
2022-10-03T08:04:20.895Z,54.90
2022-10-03T08:09:21.017Z,45.90
2022-10-03T08:14:20.867Z,40.20
2022-10-03T08:19:20.893Z,41.50
2022-10-03T08:24:20.756Z,44.00
2022-10-03T08:29:20.687Z,38.80
2022-10-03T08:36:50.719Z,30.90
2022-10-03T08:41:50.671Z,31.90
2022-10-03T08:46:50.701Z,27.20
2022-10-03T08:51:50.594Z,27.00
2022-10-03T08:56:50.488Z,27.40
2022-10-03T09:01:50.609Z,26.90
2022-10-03T09:07:12.568Z,25.90
2022-10-03T09:11:52.436Z,23.20
2022-10-03T09:16:50.269Z,20.70
2022-10-03T09:21:50.196Z,21.50
2022-10-03T09:26:50.198Z,24.50
2022-10-03T09:31:50.240Z,23.20
2022-10-03T09:36:51.162Z,20.20
2022-10-03T09:41:49.989Z,16.10
2022-10-03T09:46:50.008Z,18.30
2022-10-03T09:51:49.980Z,16.30
2022-10-03T09:56:49.844Z,17.90
2022-10-03T10:01:49.977Z,15.10
2022-10-03T10:06:49.922Z,16.80
2022-10-03T10:11:50.251Z,13.30
2022-10-03T10:16:51.095Z,11.80
2022-10-03T10:21:49.637Z,16.00
2022-10-03T10:26:49.523Z,23.20
2022-10-03T10:31:49.491Z,15.80
2022-10-03T10:36:49.402Z,13.90
2022-10-03T10:41:49.310Z,17.20
2022-10-03T10:46:49.314Z,17.00
2022-10-03T10:51:49.232Z,15.80
2022-10-03T10:56:49.249Z,13.50
2022-10-03T11:01:49.099Z,16.00
2022-10-03T11:06:49.027Z,10.60
2022-10-03T11:11:48.973Z,10.40
2022-10-03T11:16:48.988Z,11.60
2022-10-03T11:21:48.886Z,12.10
2022-10-03T11:26:49.965Z,13.40
2022-10-03T11:31:48.940Z,15.90
2022-10-03T11:36:48.794Z,14.50
2022-10-03T11:41:48.634Z,16.50
2022-10-03T11:46:48.608Z,13.20
2022-10-03T11:51:53.422Z,11.50
2022-10-03T11:56:49.491Z,7.10
2022-10-03T12:01:51.398Z,12.40
2022-10-03T12:06:48.536Z,10.60
2022-10-03T12:11:48.383Z,10.30
2022-10-03T12:16:48.412Z,10.10
2022-10-03T12:21:48.224Z,9.60
2022-10-03T12:26:49.522Z,12.60
2022-10-03T12:31:48.321Z,9.80
2022-10-03T12:36:48.294Z,10.20
2022-10-03T12:41:48.203Z,10.30
2022-10-03T12:46:48.099Z,13.00
2022-10-03T12:51:47.996Z,10.70
2022-10-03T12:56:47.982Z,13.70
2022-10-03T13:01:47.932Z,14.60
2022-10-03T13:07:04.533Z,13.10
2022-10-03T13:11:48.765Z,12.30
2022-10-03T13:16:48.658Z,9.90
2022-10-03T13:21:47.717Z,13.20
2022-10-03T13:26:47.554Z,9.80
2022-10-03T13:31:47.594Z,12.40
2022-10-03T13:36:47.504Z,9.50
2022-10-03T13:41:47.664Z,11.50
2022-10-03T13:46:48.526Z,9.00
2022-10-03T13:51:48.482Z,8.90
2022-10-03T13:56:47.269Z,8.60
2022-10-03T14:01:47.429Z,10.70
2022-10-03T14:06:47.152Z,6.20
2022-10-03T14:11:47.124Z,10.70
2022-10-03T14:16:48.171Z,7.90
2022-10-03T14:21:47.186Z,7.30
2022-10-03T14:26:46.966Z,11.40
2022-10-03T14:31:48.166Z,11.80
2022-10-03T16:43:39.804Z,9.60
2022-10-03T16:48:39.774Z,10.10
2022-10-03T16:53:39.826Z,8.50
2022-10-03T16:58:39.737Z,13.50
2022-10-03T17:03:39.678Z,7.30
2022-10-03T17:08:42.383Z,9.10
2022-10-03T17:13:39.483Z,8.50
2022-10-03T17:18:39.474Z,13.40
2022-10-03T17:23:39.394Z,13.10
2022-10-03T17:28:39.459Z,8.90
2022-10-03T17:33:39.315Z,12.80
2022-10-03T17:38:49.672Z,12.70
2022-10-03T17:43:40.253Z,15.40
2022-10-03T17:48:39.129Z,13.80
2022-10-03T17:53:39.202Z,11.10
2022-10-03T17:58:39.146Z,10.80
2022-10-03T18:03:40.092Z,14.30
2022-10-03T18:08:39.033Z,25.50
2022-10-03T18:13:38.939Z,21.90
2022-10-03T18:18:38.848Z,21.00
2022-10-03T18:23:54.156Z,22.90
2022-10-03T18:28:39.919Z,19.20
2022-10-03T18:33:38.758Z,18.80
2022-10-03T18:38:38.648Z,21.00
2022-10-03T18:43:38.541Z,17.90
2022-10-03T18:48:38.462Z,18.80
2022-10-03T18:53:38.460Z,23.80
2022-10-03T18:58:38.339Z,13.90
2022-10-03T19:03:38.302Z,18.60
2022-10-03T19:08:38.268Z,15.10
2022-10-03T19:13:38.298Z,14.60
2022-10-03T19:18:38.206Z,12.40
2022-10-03T19:23:38.095Z,14.10
2022-10-03T19:28:38.141Z,21.40
2022-10-03T19:33:38.057Z,22.00
2022-10-03T19:38:37.964Z,20.10
2022-10-03T19:43:37.911Z,18.70
2022-10-03T19:48:37.803Z,15.60
2022-10-03T19:53:37.939Z,19.50
2022-10-03T19:58:37.682Z,17.60
2022-10-03T20:03:37.735Z,19.30
2022-10-03T20:08:37.673Z,26.20
2022-10-03T20:13:37.661Z,18.30
2022-10-03T20:18:39.659Z,16.20
2022-10-03T20:23:37.493Z,20.30
2022-10-03T20:28:39.417Z,15.90
2022-10-03T20:33:37.677Z,17.80
2022-10-03T20:38:37.348Z,25.30
2022-10-03T20:43:41.233Z,18.80
2022-10-03T20:48:37.165Z,29.00
2022-10-03T20:53:37.490Z,32.90
2022-10-03T20:58:37.071Z,23.80
2022-10-03T21:03:37.178Z,24.90
2022-10-03T21:08:37.050Z,24.40
2022-10-03T21:13:37.096Z,23.10
2022-10-03T21:18:36.944Z,22.80
2022-10-03T21:23:46.736Z,17.00
2022-10-03T21:28:36.849Z,20.10
2022-10-03T21:33:36.612Z,20.40
2022-10-03T21:38:36.534Z,16.60
2022-10-03T21:43:36.484Z,18.50
2022-10-03T21:48:36.433Z,20.70
2022-10-03T21:53:36.484Z,20.10
2022-10-03T21:58:36.423Z,21.70
2022-10-03T22:03:37.335Z,30.60
2022-10-03T22:08:36.327Z,16.90
2022-10-03T22:13:36.243Z,21.20
2022-10-03T22:18:36.208Z,17.40
2022-10-03T22:23:36.050Z,20.20
2022-10-03T22:28:36.057Z,22.00
2022-10-03T22:33:35.939Z,18.30
2022-10-03T22:38:35.881Z,23.10
2022-10-03T22:43:35.796Z,22.40
2022-10-03T22:48:35.768Z,20.20
2022-10-03T22:53:35.744Z,21.70
2022-10-03T22:58:35.700Z,23.80
2022-10-03T23:03:35.692Z,19.60
2022-10-03T23:08:35.653Z,18.20
2022-10-03T23:13:35.595Z,17.20
2022-10-03T23:18:35.622Z,19.20
2022-10-03T23:23:36.640Z,20.80
2022-10-03T23:28:35.367Z,16.70
2022-10-03T23:33:35.311Z,22.10
2022-10-03T23:38:35.182Z,21.10
2022-10-03T23:43:35.154Z,20.90
2022-10-03T23:48:35.101Z,16.80
2022-10-03T23:53:35.141Z,18.10
2022-10-03T23:58:35.113Z,20.20
